Kinsale, Virginia
Current Conditions -  °F | °C
As of 10:53 AM on Saturday 25 Oct 2014 (Local Time) from KNUI Reporting Station
Clear Clear  
Wind Chill: 65°   Ceiling: Unl
Heat Index: 65°   Visibility: 10mi
Dew Point: 41°   Wind: 6mph
Humidity: 42%   Direction: NA
Pressure: 29.97"   Gusts: NA
Location:  38.03°N, 76.58°W
Report Text: KNUI 251453Z AUTO VRB05KT 10SM CLR 18/05 A2997 RMK AO2 SLP147 T01830050 50002 $
Loading
Personal Weather Stations






























Interactive Weather Map
Tropical Storm Tracking
New forecast layout! Learn more

10-Day Weather Forecast

Advertisements
Track Severe Weather on mobile